createdAt,value
2019-04-18T00:00:29.660Z,9.60
2019-04-18T00:01:29.036Z,9.90
2019-04-18T00:02:29.064Z,10.90
2019-04-18T00:03:29.093Z,10.90
2019-04-18T00:04:31.943Z,10.50
2019-04-18T00:05:29.148Z,11.70
2019-04-18T00:06:29.178Z,12.00
2019-04-18T00:07:29.207Z,11.00
2019-04-18T00:08:29.234Z,11.10
2019-04-18T00:09:29.263Z,12.50
2019-04-18T00:10:29.291Z,11.30
2019-04-18T00:11:29.326Z,11.10
2019-04-18T00:12:29.348Z,10.50
2019-04-18T00:13:29.507Z,10.10
2019-04-18T00:14:48.257Z,9.60
2019-04-18T00:15:38.861Z,9.60
2019-04-18T00:16:29.462Z,10.20
2019-04-18T00:17:30.978Z,10.60
2019-04-18T00:18:29.519Z,10.00
2019-04-18T00:19:29.543Z,8.80
2019-04-18T00:20:29.574Z,8.40
2019-04-18T00:21:29.605Z,8.70
2019-04-18T00:22:29.631Z,7.80
2019-04-18T00:23:30.046Z,7.80
2019-04-18T00:24:29.992Z,7.40
2019-04-18T00:25:29.739Z,7.90
2019-04-18T00:26:29.747Z,8.10
2019-04-18T00:27:30.099Z,8.40
2019-04-18T00:28:29.823Z,7.90
2019-04-18T00:29:29.851Z,8.30
2019-04-18T00:30:30.377Z,7.20
2019-04-18T00:31:30.107Z,8.00
2019-04-18T00:32:29.937Z,7.90
2019-04-18T00:33:30.167Z,7.50
2019-04-18T00:34:30.503Z,7.10
2019-04-18T00:35:30.024Z,7.60
2019-04-18T00:36:30.354Z,8.30
2019-04-18T00:37:30.099Z,7.10
2019-04-18T00:38:31.162Z,7.50
2019-04-18T00:39:31.450Z,7.60
2019-04-18T00:40:30.162Z,7.60
2019-04-18T00:41:30.677Z,7.50
2019-04-18T00:42:30.223Z,7.30
2019-04-18T00:43:30.224Z,8.20
2019-04-18T00:44:32.152Z,9.00
2019-04-18T00:45:30.279Z,8.10
2019-04-18T00:46:30.310Z,8.60
2019-04-18T00:47:30.336Z,8.50
2019-04-18T00:48:30.364Z,8.00
2019-04-18T00:49:33.590Z,8.40
2019-04-18T00:50:30.421Z,8.20
2019-04-18T00:51:30.493Z,8.00
2019-04-18T00:52:30.477Z,9.00
2019-04-18T00:53:30.505Z,7.90
2019-04-18T00:54:30.533Z,8.00
2019-04-18T00:55:30.563Z,7.90
2019-04-18T00:56:30.588Z,9.00
2019-04-18T00:57:30.618Z,8.40
2019-04-18T00:58:30.648Z,9.50
2019-04-18T00:59:30.672Z,9.20
2019-04-18T01:00:32.284Z,8.70
2019-04-18T01:01:30.731Z,9.10
2019-04-18T01:02:30.758Z,9.00
2019-04-18T01:03:30.785Z,8.90
2019-04-18T01:04:34.041Z,8.30
2019-04-18T01:05:30.841Z,8.50
2019-04-18T01:06:30.870Z,7.80
2019-04-18T01:07:30.898Z,8.40
2019-04-18T01:08:30.957Z,8.20
2019-04-18T01:09:30.954Z,8.70
2019-04-18T01:10:30.983Z,8.70
2019-04-18T01:11:31.010Z,8.50
2019-04-18T01:12:31.982Z,9.00
2019-04-18T01:13:31.067Z,9.10
2019-04-18T01:14:31.095Z,8.20
2019-04-18T01:15:31.121Z,8.50
2019-04-18T01:16:31.151Z,8.40
2019-04-18T01:17:34.144Z,8.40
2019-04-18T01:18:31.207Z,8.10
2019-04-18T01:19:31.234Z,8.00
2019-04-18T01:20:31.262Z,8.10
2019-04-18T01:21:34.040Z,8.10
2019-04-18T01:23:31.348Z,8.80
2019-04-18T01:24:31.379Z,7.90
2019-04-18T01:25:32.192Z,8.20
2019-04-18T01:26:31.434Z,9.00
2019-04-18T01:27:31.459Z,7.40
2019-04-18T01:28:31.487Z,8.90
2019-04-18T01:29:31.517Z,7.80
2019-04-18T01:30:31.544Z,7.60
2019-04-18T01:31:31.572Z,7.90
2019-04-18T01:32:31.600Z,7.50
2019-04-18T01:33:32.863Z,8.40
2019-04-18T01:34:41.573Z,7.90
2019-04-18T01:35:31.683Z,8.20
2019-04-18T01:36:31.711Z,8.10
2019-04-18T01:37:34.091Z,7.50
2019-04-18T01:38:31.769Z,8.40
2019-04-18T01:39:31.805Z,7.90
2019-04-18T01:40:31.826Z,7.70
2019-04-18T01:41:31.853Z,8.50
2019-04-18T01:42:31.882Z,7.60
2019-04-18T01:43:34.023Z,7.70
2019-04-18T01:44:31.937Z,8.10
2019-04-18T01:45:31.964Z,8.10
2019-04-18T01:46:31.993Z,7.50
2019-04-18T01:47:32.022Z,7.40
2019-04-18T01:48:34.793Z,7.20
2019-04-18T01:49:32.077Z,7.30
2019-04-18T01:50:32.105Z,8.00
2019-04-18T01:51:32.132Z,7.80
2019-04-18T01:52:32.162Z,7.40
2019-04-18T01:53:33.619Z,7.60
2019-04-18T01:54:32.219Z,7.80
2019-04-18T01:55:32.248Z,7.00
2019-04-18T01:56:32.273Z,6.90
2019-04-18T01:57:32.302Z,8.30
2019-04-18T01:58:34.024Z,8.00
2019-04-18T01:59:32.362Z,6.80
2019-04-18T02:00:32.385Z,7.70
2019-04-18T02:01:32.413Z,8.00
2019-04-18T02:02:32.442Z,7.60
2019-04-18T02:03:33.848Z,7.30
2019-04-18T02:04:32.497Z,7.40
2019-04-18T02:05:32.527Z,7.50
2019-04-18T02:06:32.554Z,7.80
2019-04-18T02:07:32.581Z,7.40
2019-04-18T02:08:32.611Z,7.40
2019-04-18T02:09:32.640Z,7.40
2019-04-18T02:10:32.670Z,7.50
2019-04-18T02:11:34.799Z,7.50
2019-04-18T02:12:32.729Z,7.90
2019-04-18T02:13:32.751Z,7.30
2019-04-18T02:14:32.778Z,7.90
2019-04-18T02:15:33.114Z,7.80
2019-04-18T02:16:32.833Z,7.50
2019-04-18T02:17:32.861Z,7.30
2019-04-18T02:18:32.890Z,7.30
2019-04-18T02:19:32.917Z,7.80
2019-04-18T02:20:34.724Z,7.70
2019-04-18T02:21:32.973Z,7.50
2019-04-18T02:22:33.001Z,8.40
2019-04-18T02:23:33.028Z,8.30
2019-04-18T02:24:33.076Z,7.70
2019-04-18T02:25:41.635Z,8.40
2019-04-18T02:26:33.113Z,8.50
2019-04-18T02:27:33.142Z,8.60
2019-04-18T02:28:33.167Z,7.60
2019-04-18T02:29:33.197Z,6.90
2019-04-18T02:30:33.240Z,6.90
2019-04-18T02:31:33.255Z,6.70
2019-04-18T02:32:36.490Z,6.70
2019-04-18T02:33:33.308Z,7.80
2019-04-18T02:34:33.336Z,8.10
2019-04-18T02:35:33.364Z,7.30
2019-04-18T02:36:33.947Z,7.40
2019-04-18T02:37:33.419Z,7.50
2019-04-18T02:38:33.650Z,7.70
2019-04-18T02:39:33.473Z,7.00
2019-04-18T02:40:34.937Z,7.50
2019-04-18T02:41:33.530Z,7.80
2019-04-18T02:42:33.568Z,8.10
2019-04-18T02:43:33.590Z,7.70
2019-04-18T02:44:33.613Z,7.60
2019-04-18T02:45:34.886Z,7.00
2019-04-18T02:46:33.670Z,7.10
2019-04-18T02:47:33.696Z,6.70
2019-04-18T02:48:33.728Z,7.20
2019-04-18T02:49:33.753Z,7.20
2019-04-18T02:50:33.781Z,7.20
2019-04-18T02:51:33.807Z,7.30
2019-04-18T02:52:33.839Z,7.40
2019-04-18T02:53:33.863Z,7.40
2019-04-18T02:54:33.892Z,7.20
2019-04-18T02:55:33.918Z,6.70
2019-04-18T02:56:33.954Z,6.30
2019-04-18T02:57:33.975Z,6.40
2019-04-18T02:58:37.323Z,6.60
2019-04-18T03:01:04.148Z,6.50
2019-04-18T03:02:04.157Z,6.90
2019-04-18T03:03:05.877Z,6.80
2019-04-18T03:04:04.211Z,6.50
2019-04-18T03:05:04.241Z,6.30
2019-04-18T03:06:04.265Z,7.90
2019-04-18T03:07:04.298Z,6.50
2019-04-18T03:08:04.320Z,6.70
2019-04-18T03:09:04.348Z,6.60
2019-04-18T03:10:08.770Z,6.40
2019-04-18T03:11:04.404Z,6.70
2019-04-18T03:12:04.430Z,6.90
2019-04-18T03:13:05.062Z,6.80
2019-04-18T03:14:08.042Z,7.10
2019-04-18T03:15:05.089Z,6.60
2019-04-18T03:16:08.337Z,6.00
2019-04-18T03:17:04.569Z,6.70
2019-04-18T03:18:05.270Z,6.30
2019-04-18T03:19:05.571Z,5.90
2019-04-18T03:20:04.650Z,6.30
2019-04-18T03:21:04.677Z,6.00
2019-04-18T03:22:04.705Z,7.00
2019-04-18T03:23:05.893Z,6.60
2019-04-18T03:24:04.761Z,6.60
2019-04-18T03:25:04.791Z,6.20
2019-04-18T03:26:04.814Z,7.10
2019-04-18T03:27:04.844Z,7.80
2019-04-18T03:28:09.985Z,8.00
2019-04-18T03:29:04.896Z,6.70
2019-04-18T03:30:05.047Z,7.00
2019-04-18T03:31:17.647Z,6.80
2019-04-18T03:32:05.449Z,7.20
2019-04-18T03:33:15.741Z,6.50
2019-04-18T03:34:07.707Z,7.00
2019-04-18T03:35:05.059Z,7.00
2019-04-18T03:36:05.087Z,7.00
2019-04-18T03:37:06.319Z,7.10
2019-04-18T03:38:07.546Z,7.00
2019-04-18T03:39:05.171Z,7.00
2019-04-18T03:40:05.195Z,6.50
2019-04-18T03:41:05.223Z,7.00
2019-04-18T03:42:05.251Z,6.20
2019-04-18T03:43:07.018Z,6.20
2019-04-18T03:44:05.302Z,6.80
2019-04-18T03:45:05.352Z,6.50
2019-04-18T03:46:05.435Z,6.60
2019-04-18T03:47:08.597Z,6.60
2019-04-18T03:48:06.493Z,6.60
2019-04-18T03:49:08.938Z,6.00
2019-04-18T03:50:05.467Z,6.80
2019-04-18T03:51:07.022Z,6.60
2019-04-18T03:55:06.574Z,6.90
2019-04-18T03:56:06.547Z,6.60
2019-04-18T03:57:06.792Z,6.80
2019-04-18T03:58:09.095Z,6.60
2019-04-18T03:59:06.783Z,6.90
2019-04-18T04:00:06.653Z,5.90
2019-04-18T04:01:07.104Z,6.10
2019-04-18T04:02:06.957Z,6.30
2019-04-18T04:03:11.222Z,6.40
2019-04-18T04:04:06.761Z,5.60
2019-04-18T04:05:06.791Z,5.90
2019-04-18T04:06:16.701Z,6.40
2019-04-18T04:07:06.841Z,5.90
2019-04-18T04:08:07.139Z,7.40
2019-04-18T04:09:07.323Z,7.80
2019-04-18T04:10:12.132Z,8.10
2019-04-18T04:11:06.948Z,8.90
2019-04-18T04:12:06.977Z,9.10
2019-04-18T04:13:07.208Z,9.20
2019-04-18T04:14:08.874Z,8.70
2019-04-18T04:15:14.647Z,10.50
2019-04-18T04:16:07.083Z,9.10
2019-04-18T04:17:07.245Z,8.20
2019-04-18T04:18:10.027Z,6.30
2019-04-18T04:19:07.434Z,6.10
2019-04-18T04:20:07.191Z,6.80
2019-04-18T04:21:07.512Z,7.80
2019-04-18T04:22:10.050Z,7.70
2019-04-18T04:23:07.395Z,9.10
2019-04-18T04:24:07.542Z,9.20
2019-04-18T04:25:08.637Z,8.80
2019-04-18T04:26:07.678Z,7.70
2019-04-18T04:27:07.651Z,8.10
2019-04-18T04:28:07.404Z,7.60
2019-04-18T04:29:07.797Z,6.80
2019-04-18T04:30:13.262Z,7.40
2019-04-18T04:31:07.488Z,7.20
2019-04-18T04:32:07.511Z,8.00
2019-04-18T04:33:07.864Z,7.10
2019-04-18T04:34:10.084Z,8.20
2019-04-18T04:35:07.918Z,9.50
2019-04-18T04:36:20.661Z,8.70
2019-04-18T04:37:09.591Z,8.80
2019-04-18T04:38:08.170Z,8.90
2019-04-18T04:39:07.706Z,9.60
2019-04-18T04:40:07.926Z,8.90
2019-04-18T05:03:05.660Z,10.50
2019-04-18T05:04:05.683Z,9.70
2019-04-18T05:05:05.871Z,9.60
2019-04-18T05:06:05.736Z,9.50
2019-04-18T05:07:05.764Z,9.90
2019-04-18T05:08:05.790Z,8.80
2019-04-18T05:09:05.816Z,9.50
2019-04-18T05:10:06.416Z,9.60
2019-04-18T05:11:05.869Z,9.90
2019-04-18T05:12:06.374Z,10.00
2019-04-18T05:13:09.313Z,9.20
2019-04-18T05:14:05.951Z,9.50
2019-04-18T05:15:09.463Z,9.10
2019-04-18T05:16:06.002Z,8.90
2019-04-18T05:24:41.865Z,9.40
2019-04-18T05:25:41.890Z,9.40
2019-04-18T05:26:41.916Z,9.30
2019-04-18T05:27:41.942Z,8.50
2019-04-18T05:28:41.977Z,10.10
2019-04-18T05:29:42.006Z,9.80
2019-04-18T05:30:42.022Z,10.50
2019-04-18T05:31:42.050Z,10.50
2019-04-18T05:32:42.849Z,10.60
2019-04-18T05:33:42.114Z,9.70
2019-04-18T05:34:42.135Z,9.40
2019-04-18T05:35:42.158Z,9.20
2019-04-18T05:36:55.310Z,9.00
2019-04-18T05:37:45.177Z,9.10
2019-04-18T05:38:42.240Z,9.20
2019-04-18T05:39:42.267Z,8.70
2019-04-18T05:40:42.295Z,8.90
2019-04-18T05:41:43.015Z,8.30
2019-04-18T05:42:42.348Z,8.80
2019-04-18T05:43:42.374Z,8.60
2019-04-18T05:44:42.410Z,8.50
2019-04-18T05:45:42.662Z,8.90
2019-04-18T05:46:42.456Z,9.50
2019-04-18T05:47:42.576Z,9.20
2019-04-18T05:48:42.515Z,9.50
2019-04-18T05:49:42.540Z,8.70
2019-04-18T05:50:45.678Z,8.70
2019-04-18T05:51:42.594Z,9.10
2019-04-18T05:52:42.620Z,9.10
2019-04-18T05:53:42.655Z,8.20
2019-04-18T05:54:46.175Z,8.80
2019-04-18T05:55:42.705Z,8.10
2019-04-18T05:56:42.734Z,8.40
2019-04-18T05:57:42.757Z,8.60
2019-04-18T05:58:43.368Z,9.40
2019-04-18T05:59:42.816Z,9.20
2019-04-18T06:00:42.863Z,9.30
2019-04-18T06:01:42.870Z,8.60
2019-04-18T06:02:42.896Z,10.20
2019-04-18T06:03:42.923Z,9.20
2019-04-18T06:04:42.951Z,10.00
2019-04-18T06:05:42.978Z,9.50
2019-04-18T06:06:45.379Z,9.80
2019-04-18T06:07:43.034Z,9.10
2019-04-18T06:08:43.062Z,8.60
2019-04-18T06:09:43.322Z,8.40
2019-04-18T06:10:43.119Z,9.10
2019-04-18T06:11:43.245Z,9.00
2019-04-18T06:12:43.176Z,9.50
2019-04-18T06:13:43.203Z,9.70
2019-04-18T06:14:43.231Z,9.40
2019-04-18T06:15:43.257Z,10.00
2019-04-18T06:16:43.287Z,10.80
2019-04-18T06:17:43.313Z,11.30
2019-04-18T06:18:43.510Z,12.30
2019-04-18T06:19:43.369Z,12.10
2019-04-18T06:20:43.398Z,12.70
2019-04-18T06:21:43.428Z,12.00
2019-04-18T06:22:43.455Z,13.30
2019-04-18T06:23:43.485Z,14.80
2019-04-18T06:24:43.512Z,15.00
2019-04-18T06:25:43.667Z,14.10
2019-04-18T06:26:43.568Z,13.70
2019-04-18T06:27:43.597Z,13.00
2019-04-18T06:28:43.624Z,12.80
2019-04-18T06:29:43.652Z,12.50
2019-04-18T06:30:43.681Z,12.50
2019-04-18T06:31:43.721Z,12.40
2019-04-18T06:32:43.737Z,13.00
2019-04-18T06:33:43.766Z,12.70
2019-04-18T06:34:43.798Z,12.30
2019-04-18T06:35:46.403Z,12.80
2019-04-18T06:36:43.851Z,13.10
2019-04-18T06:37:44.738Z,13.00
2019-04-18T06:38:43.911Z,13.70
2019-04-18T06:39:43.936Z,12.70
2019-04-18T06:40:43.968Z,11.10
2019-04-18T06:41:43.995Z,12.60
2019-04-18T06:42:48.918Z,11.20
2019-04-18T06:43:44.053Z,11.80
2019-04-18T06:44:44.084Z,11.90
2019-04-18T06:45:44.111Z,10.80
2019-04-18T06:46:44.141Z,9.90
2019-04-18T06:47:44.169Z,10.00
2019-04-18T06:48:44.199Z,9.50
2019-04-18T06:49:47.647Z,9.20
2019-04-18T06:50:44.259Z,9.50
2019-04-18T06:51:44.292Z,9.50
2019-04-18T06:52:44.317Z,9.90
2019-04-18T06:53:46.594Z,9.40
2019-04-18T06:54:44.374Z,10.70
2019-04-18T06:55:44.404Z,9.10
2019-04-18T06:56:46.111Z,10.00
2019-04-18T06:57:44.464Z,10.20
2019-04-18T06:58:49.349Z,9.60
2019-04-18T06:59:44.524Z,10.80
2019-04-18T07:00:44.551Z,10.30
2019-04-18T07:01:44.585Z,8.30
2019-04-18T07:02:45.835Z,8.20
2019-04-18T07:03:44.641Z,8.70
2019-04-18T07:04:44.671Z,7.90
2019-04-18T07:05:44.752Z,7.40
2019-04-18T07:06:44.897Z,7.60
2019-04-18T07:07:44.761Z,7.20
2019-04-18T07:08:45.510Z,7.20
2019-04-18T07:09:54.581Z,6.40
2019-04-18T07:10:56.421Z,7.30
2019-04-18T07:11:44.882Z,6.90
2019-04-18T07:12:48.018Z,6.70
2019-04-18T07:13:44.963Z,6.90
2019-04-18T07:14:44.972Z,7.90
2019-04-18T07:15:45.004Z,7.00
2019-04-18T07:16:45.944Z,7.70
2019-04-18T07:17:45.065Z,6.70
2019-04-18T07:18:45.096Z,7.40
2019-04-18T07:19:45.126Z,6.70
2019-04-18T07:20:51.436Z,7.20
2019-04-18T07:21:45.188Z,7.20
2019-04-18T07:22:45.220Z,6.50
2019-04-18T07:23:45.250Z,6.60
2019-04-18T07:24:45.279Z,6.60
2019-04-18T07:25:45.312Z,6.80
2019-04-18T07:26:45.343Z,6.50
2019-04-18T07:27:47.257Z,7.10
2019-04-18T07:28:49.715Z,6.50
2019-04-18T07:29:45.434Z,6.80
2019-04-18T07:30:45.466Z,7.10
2019-04-18T07:31:45.498Z,6.80
2019-04-18T07:32:45.528Z,6.90
2019-04-18T07:33:45.558Z,7.50
2019-04-18T07:34:45.593Z,6.60
2019-04-18T07:35:45.622Z,6.70
2019-04-18T07:36:45.654Z,6.50
2019-04-18T07:37:47.902Z,6.70
2019-04-18T07:38:45.717Z,6.70
2019-04-18T07:39:45.769Z,7.30
2019-04-18T07:41:45.838Z,6.50
2019-04-18T07:42:45.845Z,6.10
2019-04-18T07:43:45.876Z,6.50
2019-04-18T07:44:45.905Z,6.40
2019-04-18T07:45:45.961Z,6.10
2019-04-18T07:46:45.972Z,6.90
2019-04-18T07:47:46.007Z,6.00
2019-04-18T07:48:46.034Z,6.10
2019-04-18T07:49:46.067Z,9.60
2019-04-18T07:50:46.100Z,12.80
2019-04-18T07:51:46.130Z,12.30
2019-04-18T07:52:46.918Z,12.40
2019-04-18T07:53:46.195Z,11.80
2019-04-18T07:54:46.229Z,12.10
2019-04-18T07:55:46.259Z,11.70
2019-04-18T07:56:46.293Z,12.10
2019-04-18T07:57:46.327Z,11.90
2019-04-18T07:58:46.357Z,11.80
2019-04-18T07:59:46.388Z,12.50
2019-04-18T08:00:46.421Z,11.10
2019-04-18T08:01:46.453Z,10.90
2019-04-18T08:02:46.486Z,11.90
2019-04-18T08:03:54.583Z,11.70
2019-04-18T08:04:46.550Z,11.00
2019-04-18T08:05:46.584Z,10.50
2019-04-18T08:06:46.615Z,10.70
2019-04-18T08:07:46.649Z,11.40
2019-04-18T08:08:46.682Z,10.60
2019-04-18T08:09:46.714Z,9.90
2019-04-18T08:10:46.745Z,11.00
2019-04-18T08:11:46.777Z,11.30
2019-04-18T08:12:46.810Z,9.80
2019-04-18T08:13:46.911Z,10.00
2019-04-18T08:14:46.875Z,10.50
2019-04-18T08:15:46.908Z,9.90
2019-04-18T08:16:46.940Z,10.30
2019-04-18T08:17:49.195Z,9.10
2019-04-18T08:18:47.006Z,9.70
2019-04-18T08:19:47.040Z,9.50
2019-04-18T08:20:47.073Z,9.60
2019-04-18T08:21:47.108Z,9.80
2019-04-18T08:22:47.137Z,9.10
2019-04-18T08:23:51.197Z,9.60
2019-04-18T08:24:47.202Z,10.70
2019-04-18T08:25:47.235Z,10.30
2019-04-18T08:26:47.271Z,9.80
2019-04-18T08:27:47.300Z,9.80
2019-04-18T08:28:47.333Z,9.30
2019-04-18T08:29:47.366Z,9.40
2019-04-18T08:30:47.400Z,9.50
2019-04-18T08:31:47.432Z,9.90
2019-04-18T08:32:47.466Z,10.20
2019-04-18T08:33:47.523Z,8.90
2019-04-18T08:34:47.568Z,9.10
2019-04-18T08:35:47.587Z,8.90
2019-04-18T08:36:47.828Z,8.80
2019-04-18T08:37:47.631Z,9.30
2019-04-18T08:38:47.666Z,9.60
2019-04-18T08:39:49.091Z,8.90
2019-04-18T08:40:51.232Z,9.20
2019-04-18T08:41:47.765Z,8.60
2019-04-18T08:42:47.798Z,8.60
2019-04-18T08:43:47.832Z,8.80
2019-04-18T08:44:47.865Z,9.50
2019-04-18T08:45:47.899Z,9.90
2019-04-18T08:46:47.934Z,9.20
2019-04-18T08:47:49.376Z,9.00
2019-04-18T08:48:48.000Z,9.30
2019-04-18T08:49:48.033Z,8.90
2019-04-18T08:50:49.013Z,9.90
2019-04-18T08:51:48.101Z,9.20
2019-04-18T08:52:48.266Z,10.30
2019-04-18T08:53:49.524Z,9.40
2019-04-18T08:54:48.238Z,8.40
2019-04-18T08:55:48.236Z,9.30
2019-04-18T08:56:48.270Z,9.20
2019-04-18T08:57:48.305Z,9.20
2019-04-18T08:58:48.341Z,8.90
2019-04-18T08:59:48.372Z,8.70
2019-04-18T09:00:48.455Z,9.10
2019-04-18T09:01:48.443Z,8.60
2019-04-18T09:02:48.497Z,8.40
2019-04-18T09:03:48.508Z,9.40
2019-04-18T09:04:48.877Z,8.80
2019-04-18T09:05:49.819Z,8.70
2019-04-18T09:06:51.207Z,8.80
2019-04-18T09:07:51.694Z,8.70
2019-04-18T09:08:51.687Z,9.60
2019-04-18T09:09:48.879Z,9.30
2019-04-18T09:10:49.214Z,8.80
2019-04-18T09:11:49.072Z,9.00
2019-04-18T09:12:48.816Z,9.10
2019-04-18T09:13:55.357Z,9.30
2019-04-18T09:14:49.118Z,8.80
2019-04-18T09:15:49.189Z,9.90
2019-04-18T09:16:49.116Z,8.80
2019-04-18T09:17:49.161Z,9.40
2019-04-18T09:18:49.405Z,9.90
2019-04-18T09:19:49.209Z,9.00
2019-04-18T09:20:49.480Z,9.10
2019-04-18T09:21:52.568Z,8.00
2019-04-18T09:22:49.951Z,9.00
2019-04-18T09:23:49.898Z,8.20
2019-04-18T09:24:52.283Z,8.80
2019-04-18T09:25:49.827Z,8.80
2019-04-18T09:27:49.355Z,9.00
2019-04-18T09:28:52.149Z,8.90
2019-04-18T09:29:54.269Z,8.20
2019-04-18T09:30:49.448Z,9.30
2019-04-18T09:31:49.482Z,9.10
2019-04-18T09:32:49.519Z,8.50
2019-04-18T09:34:49.593Z,9.50
2019-04-18T09:35:53.044Z,8.60
2019-04-18T09:37:49.699Z,8.80
2019-04-18T09:38:49.736Z,8.50
2019-04-18T09:39:51.664Z,8.50
2019-04-18T09:40:49.814Z,8.70
2019-04-18T09:41:49.851Z,8.60
2019-04-18T09:42:50.115Z,8.30
2019-04-18T09:43:50.653Z,8.60
2019-04-18T09:44:53.864Z,9.10
2019-04-18T09:45:50.012Z,8.40
2019-04-18T09:46:50.059Z,8.40
2019-04-18T09:47:53.368Z,8.70
2019-04-18T09:49:50.189Z,8.20
2019-04-18T09:50:50.213Z,7.60
2019-04-18T09:51:50.257Z,8.90
2019-04-18T09:52:50.301Z,9.20
2019-04-18T09:53:50.341Z,9.30
2019-04-18T09:54:50.385Z,8.80
2019-04-18T09:56:50.470Z,9.60
2019-04-18T09:57:50.515Z,10.00
2019-04-18T09:58:50.582Z,9.30
2019-04-18T09:59:50.618Z,9.20
2019-04-18T10:00:50.850Z,9.20
2019-04-18T10:01:53.668Z,9.30
2019-04-18T10:02:57.505Z,9.50
2019-04-18T10:03:50.986Z,9.20
2019-04-18T10:04:50.945Z,9.30
2019-04-18T10:05:54.710Z,8.80
2019-04-18T10:07:51.807Z,9.50
2019-04-18T10:08:51.440Z,8.80
2019-04-18T10:09:51.060Z,8.70
2019-04-18T10:11:51.649Z,9.10
2019-04-18T10:12:51.197Z,9.50
2019-04-18T10:13:51.244Z,9.40
2019-04-18T10:15:15.208Z,9.40
2019-04-18T10:15:58.836Z,9.50
2019-04-18T10:16:51.385Z,9.80
2019-04-18T10:17:51.433Z,9.70
2019-04-18T10:18:51.481Z,9.90
2019-04-18T10:21:36.757Z,9.90
2019-04-18T10:22:34.183Z,9.10
2019-04-18T10:23:34.229Z,10.00
2019-04-18T10:24:34.277Z,9.00
2019-04-18T10:25:36.229Z,9.40
2019-04-18T10:26:36.996Z,8.60
2019-04-18T10:27:35.034Z,9.60
2019-04-18T10:29:34.521Z,9.10
2019-04-18T10:31:17.457Z,9.10
2019-04-18T10:32:17.176Z,8.80
2019-04-18T10:33:23.513Z,9.40
2019-04-18T10:34:17.956Z,9.30
2019-04-18T10:38:17.468Z,9.40
2019-04-18T10:39:17.580Z,10.20
2019-04-18T10:41:47.727Z,10.10
2019-04-18T10:42:47.754Z,10.40
2019-04-18T10:43:47.803Z,10.40
2019-04-18T10:44:47.851Z,9.70
2019-04-18T10:45:47.902Z,10.20
2019-04-18T10:46:47.950Z,10.30
2019-04-18T10:47:47.998Z,9.90
2019-04-18T10:48:48.048Z,10.50
2019-04-18T10:49:48.099Z,11.10
2019-04-18T10:51:48.196Z,11.30
2019-04-18T10:52:48.246Z,10.40
2019-04-18T10:53:48.295Z,10.20
2019-04-18T10:54:51.268Z,10.70
2019-04-18T10:55:48.394Z,11.40
2019-04-18T10:56:48.443Z,10.80
2019-04-18T10:57:48.493Z,11.00
2019-04-18T10:58:48.544Z,11.40
2019-04-18T10:59:48.592Z,10.90
2019-04-18T11:01:49.462Z,11.00
2019-04-18T11:02:48.772Z,11.60
2019-04-18T11:04:48.841Z,11.00
2019-04-18T11:07:49.012Z,12.20
2019-04-18T11:08:49.043Z,11.60
2019-04-18T11:09:49.091Z,10.80
2019-04-18T11:10:49.164Z,10.40
2019-04-18T11:12:49.875Z,12.00
2019-04-18T11:15:49.390Z,11.20
2019-04-18T11:16:49.446Z,10.80
2019-04-18T11:20:49.645Z,11.10
2019-04-18T11:21:50.499Z,10.80
2019-04-18T11:22:49.743Z,10.90
2019-04-18T11:23:50.216Z,10.60
2019-04-18T11:24:49.870Z,10.70
2019-04-18T11:25:52.022Z,11.90
2019-04-18T11:26:49.966Z,11.30
2019-04-18T11:27:49.994Z,11.10
2019-04-18T11:28:50.042Z,11.00
2019-04-18T11:30:58.608Z,10.60
2019-04-18T11:31:50.192Z,11.00
2019-04-18T11:32:50.244Z,10.40
2019-04-18T11:33:50.293Z,10.50
2019-04-18T11:34:50.344Z,10.50
2019-04-18T11:35:50.394Z,11.20
2019-04-18T11:36:50.453Z,11.10
2019-04-18T11:37:50.497Z,11.40
2019-04-18T11:38:50.546Z,10.80
2019-04-18T11:39:50.596Z,11.10
2019-04-18T11:40:50.674Z,10.90
2019-04-18T11:41:50.723Z,10.60
2019-04-18T11:42:50.771Z,10.90
2019-04-18T11:43:52.077Z,10.70
2019-04-18T11:44:50.849Z,10.50
2019-04-18T11:45:51.229Z,10.40
2019-04-18T11:46:50.978Z,10.60
2019-04-18T11:47:51.005Z,10.00
2019-04-18T11:48:51.052Z,10.40
2019-04-18T11:49:51.102Z,10.50
2019-04-18T11:50:51.354Z,10.40
2019-04-18T11:51:51.787Z,10.80
2019-04-18T11:53:51.706Z,10.60
2019-04-18T11:54:51.356Z,10.80
2019-04-18T11:55:51.403Z,10.50
2019-04-18T11:56:51.461Z,10.60
2019-04-18T11:57:52.155Z,10.40
2019-04-18T12:00:24.256Z,11.00
2019-04-18T12:01:30.639Z,11.50
2019-04-18T12:05:52.906Z,9.60
2019-04-18T12:06:52.955Z,9.10
2019-04-18T12:07:53.006Z,9.80
2019-04-18T12:08:53.055Z,9.40
2019-04-18T12:09:53.106Z,9.70
2019-04-18T12:10:53.156Z,10.00
2019-04-18T12:15:17.142Z,10.00
2019-04-18T12:16:16.792Z,9.80
2019-04-18T12:17:16.843Z,10.10
2019-04-18T12:18:16.893Z,10.50
2019-04-18T12:19:16.944Z,10.40
2019-04-18T12:20:16.994Z,9.70
2019-04-18T12:21:17.045Z,10.00
2019-04-18T12:25:16.327Z,10.70
2019-04-18T12:33:43.805Z,9.80
2019-04-18T12:34:43.861Z,9.90
2019-04-18T12:35:44.158Z,9.90
2019-04-18T12:37:44.055Z,10.20
2019-04-18T12:53:58.197Z,9.60
2019-04-18T12:54:54.334Z,9.90
2019-04-18T12:55:57.783Z,9.40
2019-04-18T12:56:54.435Z,8.40
2019-04-18T12:57:54.486Z,9.10
2019-04-18T12:58:54.540Z,8.50
2019-04-18T12:59:54.590Z,9.20
2019-04-18T13:00:54.732Z,7.80
2019-04-18T13:01:54.694Z,7.60
2019-04-18T13:02:54.746Z,8.20
2019-04-18T13:03:54.798Z,8.50
2019-04-18T13:04:54.848Z,7.40
2019-04-18T13:05:57.860Z,8.90
2019-04-18T13:06:54.953Z,6.80
2019-04-18T13:07:55.006Z,5.70
2019-04-18T13:08:55.057Z,5.50
2019-04-18T13:09:55.109Z,6.10
2019-04-18T13:10:55.161Z,4.90
2019-04-18T13:11:55.243Z,6.60
2019-04-18T13:12:55.495Z,6.30
2019-04-18T13:13:55.342Z,7.10
2019-04-18T13:14:55.418Z,7.80
2019-04-18T13:15:55.655Z,7.60
2019-04-18T13:16:55.476Z,7.50
2019-04-18T13:17:55.523Z,7.80
2019-04-18T13:18:55.578Z,7.20
2019-04-18T13:19:55.629Z,8.10
2019-04-18T13:20:55.915Z,7.70
2019-04-18T13:38:15.809Z,9.60
2019-04-18T13:39:16.295Z,9.30
2019-04-18T13:41:15.690Z,8.10
2019-04-18T13:43:15.760Z,8.30
2019-04-18T13:44:15.820Z,9.20
2019-04-18T13:45:15.863Z,8.10
2019-04-18T13:46:15.916Z,9.60
2019-04-18T13:47:15.966Z,9.10
2019-04-18T13:48:16.019Z,8.90
2019-04-18T13:49:16.070Z,8.50
2019-04-18T13:50:16.395Z,8.30
2019-04-18T13:51:16.173Z,8.70
2019-04-18T13:52:16.224Z,7.80
2019-04-18T13:53:17.745Z,9.10
2019-04-18T13:54:16.326Z,8.40
2019-04-18T13:55:16.375Z,8.50
2019-04-18T13:56:16.535Z,8.70
2019-04-18T13:57:16.479Z,8.50
2019-04-18T13:58:16.530Z,8.80
2019-04-18T13:59:16.584Z,7.90
2019-04-18T14:00:17.295Z,8.30
2019-04-18T14:01:16.682Z,7.70
2019-04-18T14:02:20.547Z,8.40
2019-04-18T14:03:16.788Z,6.80
2019-04-18T14:04:16.836Z,7.60
2019-04-18T14:05:16.887Z,7.10
2019-04-18T14:06:16.938Z,7.20
2019-04-18T14:07:16.987Z,7.60
2019-04-18T14:08:17.151Z,7.80
2019-04-18T14:09:17.096Z,7.40
2019-04-18T14:10:17.147Z,7.00
2019-04-18T14:11:17.191Z,5.60
2019-04-18T14:12:17.242Z,5.70
2019-04-18T14:13:17.294Z,6.50
2019-04-18T14:14:17.344Z,6.40
2019-04-18T14:15:17.395Z,8.10
2019-04-18T14:16:17.449Z,8.00
2019-04-18T14:17:17.499Z,8.20
2019-04-18T14:18:18.050Z,8.00
2019-04-18T14:19:17.608Z,7.40
2019-04-18T14:20:17.651Z,8.10
2019-04-18T14:21:17.703Z,8.10
2019-04-18T14:22:17.755Z,8.60
2019-04-18T14:23:17.809Z,9.00
2019-04-18T14:24:17.861Z,10.30
2019-04-18T14:25:17.909Z,8.00
2019-04-18T14:26:17.960Z,7.10
2019-04-18T14:27:18.012Z,8.50
2019-04-18T14:28:19.899Z,7.30
2019-04-18T14:29:18.116Z,8.50
2019-04-18T14:30:18.167Z,8.20
2019-04-18T14:31:18.217Z,7.20
2019-04-18T14:32:32.691Z,7.10
2019-04-18T14:33:18.320Z,7.00
2019-04-18T14:34:18.372Z,7.80
2019-04-18T14:35:18.422Z,7.50
2019-04-18T14:36:19.068Z,6.00
2019-04-18T14:37:18.526Z,3.60
2019-04-18T14:38:18.576Z,4.40
2019-04-18T14:39:18.630Z,4.40
2019-04-18T14:40:18.679Z,4.50
2019-04-18T14:41:18.732Z,3.40
2019-04-18T14:42:18.785Z,3.10
2019-04-18T14:43:21.004Z,3.10
2019-04-18T14:44:20.616Z,3.40
2019-04-18T14:45:19.002Z,3.60
2019-04-18T14:46:18.985Z,3.50
2019-04-18T14:47:19.036Z,3.30
2019-04-18T14:48:19.282Z,3.30
2019-04-18T14:49:19.193Z,3.00
2019-04-18T14:50:19.190Z,2.40
2019-04-18T14:51:19.240Z,2.80
2019-04-18T14:52:19.290Z,2.40
2019-04-18T14:53:19.341Z,2.60
2019-04-18T14:54:19.396Z,2.30
2019-04-18T14:55:19.479Z,2.80
2019-04-18T14:56:19.495Z,2.70
2019-04-18T14:57:19.547Z,2.30
2019-04-18T14:58:19.599Z,2.90
2019-04-18T14:59:20.004Z,2.90
2019-04-18T15:00:19.700Z,3.30
2019-04-18T15:01:19.912Z,3.10
2019-04-18T15:02:19.802Z,3.20
2019-04-18T15:03:19.852Z,3.30
2019-04-18T15:04:19.904Z,3.00
2019-04-18T15:05:19.954Z,3.40
2019-04-18T15:06:20.008Z,3.80
2019-04-18T15:07:23.655Z,4.30
2019-04-18T15:08:20.107Z,3.30
2019-04-18T15:09:20.159Z,2.20
2019-04-18T15:10:20.210Z,2.60